createdAt,value
2023-04-12T00:01:10.104Z,5.93
2023-04-12T00:03:37.410Z,8.57
2023-04-12T00:06:07.211Z,5.77
2023-04-12T00:08:35.617Z,7.53
2023-04-12T00:11:03.212Z,7.43
2023-04-12T00:13:30.424Z,4.83
2023-04-12T00:15:57.169Z,5.20
2023-04-12T00:18:25.269Z,6.63
2023-04-12T00:20:52.878Z,4.80
2023-04-12T00:23:19.765Z,7.20
2023-04-12T00:25:46.740Z,6.50
2023-04-12T00:28:13.678Z,8.37
2023-04-12T00:30:41.492Z,5.53
2023-04-12T00:33:08.467Z,6.37
2023-04-12T00:35:35.349Z,6.33
2023-04-12T00:38:03.704Z,4.90
2023-04-12T00:40:30.632Z,6.60
2023-04-12T00:42:57.727Z,5.47
2023-04-12T00:45:24.393Z,4.20
2023-04-12T00:47:51.090Z,4.40
2023-04-12T00:50:18.095Z,6.13
2023-04-12T00:52:45.194Z,5.90
2023-04-12T00:55:11.981Z,4.53
2023-04-12T00:57:40.414Z,5.00
2023-04-12T01:00:10.356Z,6.30
2023-04-12T01:02:39.494Z,4.73
2023-04-12T01:05:07.475Z,4.77
2023-04-12T01:07:44.961Z,5.63
2023-04-12T01:10:41.564Z,6.23
2023-04-12T01:13:21.838Z,4.87
2023-04-12T01:15:58.965Z,4.93
2023-04-12T01:18:30.483Z,7.83
2023-04-12T01:21:10.675Z,5.90
2023-04-12T01:24:03.982Z,7.17
2023-04-12T01:26:37.033Z,6.33
2023-04-12T01:29:09.991Z,6.50
2023-04-12T01:31:39.701Z,4.67
2023-04-12T01:34:09.423Z,7.00
2023-04-12T01:36:38.283Z,4.50
2023-04-12T01:39:05.891Z,7.23
2023-04-12T01:41:41.770Z,3.37
2023-04-12T01:44:08.580Z,4.93
2023-04-12T01:46:37.498Z,3.47
2023-04-12T01:49:04.576Z,6.03
2023-04-12T01:52:19.401Z,3.00
2023-04-12T01:54:50.635Z,3.63
2023-04-12T01:57:19.851Z,4.70
2023-04-12T01:59:48.838Z,4.80
2023-04-12T02:02:16.127Z,7.90
2023-04-12T02:04:43.389Z,3.10
2023-04-12T02:07:10.055Z,5.13
2023-04-12T02:09:38.472Z,4.60
2023-04-12T02:12:06.766Z,4.60
2023-04-12T02:14:33.686Z,5.43
2023-04-12T02:17:02.422Z,6.67
2023-04-12T02:19:29.324Z,4.27
2023-04-12T02:21:56.144Z,10.53
2023-04-12T02:24:23.855Z,8.37
2023-04-12T02:26:50.485Z,7.60
2023-04-12T02:29:17.617Z,5.53
2023-04-12T02:31:44.300Z,4.80
2023-04-12T02:34:13.198Z,5.23
2023-04-12T02:36:39.883Z,4.60
2023-04-12T02:39:07.866Z,7.97
2023-04-12T02:41:34.732Z,10.17
2023-04-12T02:44:01.649Z,7.47
2023-04-12T02:46:28.593Z,4.47
2023-04-12T02:48:55.587Z,2.77
2023-04-12T02:51:22.574Z,3.90
2023-04-12T02:53:49.674Z,8.37
2023-04-12T02:56:19.018Z,5.53
2023-04-12T02:58:46.322Z,3.17
2023-04-12T03:01:14.438Z,6.40
2023-04-12T03:03:41.698Z,5.63
2023-04-12T03:06:11.308Z,6.10
2023-04-12T03:08:38.280Z,5.73
2023-04-12T03:11:05.468Z,5.63
2023-04-12T03:13:32.144Z,5.70
2023-04-12T03:15:59.895Z,4.87
2023-04-12T03:18:26.776Z,6.13
2023-04-12T03:20:53.597Z,7.70
2023-04-12T03:23:20.821Z,6.77
2023-04-12T03:25:47.633Z,7.23
2023-04-12T03:28:14.335Z,6.43
2023-04-12T03:30:41.080Z,6.60
2023-04-12T03:33:07.986Z,5.13
2023-04-12T03:35:34.862Z,7.43
2023-04-12T03:38:01.631Z,9.23
2023-04-12T03:40:28.313Z,6.40
2023-04-12T03:42:54.989Z,4.50
2023-04-12T03:45:21.702Z,7.67
2023-04-12T03:47:48.458Z,5.97
2023-04-12T03:50:15.201Z,5.80
2023-04-12T03:52:41.865Z,5.50
2023-04-12T03:55:08.910Z,7.07
2023-04-12T03:57:35.878Z,5.63
2023-04-12T04:00:02.850Z,9.00
2023-04-12T04:02:30.004Z,4.83
2023-04-12T04:04:57.116Z,6.43
2023-04-12T04:07:23.889Z,6.97
2023-04-12T04:09:51.021Z,4.97
2023-04-12T04:12:17.711Z,5.90
2023-04-12T04:14:44.631Z,7.33
2023-04-12T04:17:11.793Z,5.37
2023-04-12T04:19:39.132Z,6.63
2023-04-12T04:22:05.806Z,5.13
2023-04-12T04:24:34.141Z,8.00
2023-04-12T04:27:00.926Z,6.07
2023-04-12T04:29:29.098Z,10.10
2023-04-12T04:31:57.380Z,4.97
2023-04-12T04:34:25.358Z,7.23
2023-04-12T04:36:52.798Z,5.30
2023-04-12T04:39:19.508Z,5.00
2023-04-12T04:41:46.636Z,6.10
2023-04-12T04:44:14.250Z,7.60
2023-04-12T04:46:41.289Z,5.77
2023-04-12T04:49:07.968Z,8.20
2023-04-12T04:51:34.616Z,6.80
2023-04-12T04:54:02.204Z,5.57
2023-04-12T04:56:28.996Z,6.40
2023-04-12T04:58:57.165Z,5.67
2023-04-12T05:01:29.197Z,5.00
2023-04-12T05:03:56.346Z,5.13
2023-04-12T05:06:23.390Z,6.23
2023-04-12T05:08:50.122Z,5.60
2023-04-12T05:11:16.825Z,6.57
2023-04-12T05:13:43.505Z,6.63
2023-04-12T05:16:11.329Z,5.37
2023-04-12T05:18:38.596Z,4.00
2023-04-12T05:21:05.769Z,5.63
2023-04-12T05:23:37.479Z,4.07
2023-04-12T05:26:04.661Z,6.70
2023-04-12T05:28:31.720Z,7.27
2023-04-12T05:30:58.668Z,7.37
2023-04-12T05:33:25.804Z,6.87
2023-04-12T05:35:52.534Z,4.30
2023-04-12T05:38:19.343Z,7.40
2023-04-12T05:40:46.082Z,3.90
2023-04-12T05:43:13.037Z,7.87
2023-04-12T05:45:41.272Z,5.83
2023-04-12T05:48:08.643Z,6.30
2023-04-12T05:50:36.656Z,7.10
2023-04-12T05:53:03.753Z,5.33
2023-04-12T05:55:30.705Z,8.00
2023-04-12T05:57:58.593Z,5.67
2023-04-12T06:00:26.223Z,5.33
2023-04-12T06:02:53.180Z,7.13
2023-04-12T06:05:20.065Z,9.03
2023-04-12T06:07:47.023Z,5.90
2023-04-12T06:10:16.153Z,6.37
2023-04-12T06:12:43.224Z,2.90
2023-04-12T06:15:10.570Z,5.43
2023-04-12T06:17:37.803Z,6.93
2023-04-12T06:20:09.641Z,6.53
2023-04-12T06:22:37.174Z,4.97
2023-04-12T06:25:04.419Z,3.93
2023-04-12T06:27:31.367Z,5.47
2023-04-12T06:29:58.358Z,5.07
2023-04-12T06:32:25.510Z,5.40
2023-04-12T06:34:52.526Z,4.57
2023-04-12T06:37:19.290Z,9.70
2023-04-12T06:39:46.092Z,5.47
2023-04-12T06:42:14.824Z,4.63
2023-04-12T06:44:41.753Z,4.00
2023-04-12T06:47:09.383Z,5.67
2023-04-12T06:49:36.410Z,3.33
2023-04-12T06:52:03.084Z,3.40
2023-04-12T06:54:29.836Z,6.33
2023-04-12T06:56:57.258Z,2.90
2023-04-12T06:59:24.013Z,5.10
2023-04-12T07:01:50.750Z,4.20
2023-04-12T07:04:17.546Z,4.20
2023-04-12T07:06:44.415Z,5.77
2023-04-12T07:09:11.119Z,5.27
2023-04-12T07:11:37.956Z,3.20
2023-04-12T07:14:04.643Z,4.13
2023-04-12T07:16:32.546Z,4.00
2023-04-12T07:19:00.280Z,2.30
2023-04-12T07:21:27.593Z,3.00
2023-04-12T07:23:54.815Z,4.03
2023-04-12T07:26:21.800Z,2.83
2023-04-12T07:28:48.597Z,2.53
2023-04-12T07:31:15.480Z,2.10
2023-04-12T07:33:43.342Z,2.37
2023-04-12T07:36:11.426Z,3.13
2023-04-12T07:38:38.203Z,3.60
2023-04-12T07:41:05.373Z,3.17
2023-04-12T07:43:32.150Z,3.53
2023-04-12T07:45:59.007Z,3.20
2023-04-12T07:48:26.328Z,3.10
2023-04-12T07:50:53.067Z,4.33
2023-04-12T07:53:19.969Z,3.27
2023-04-12T07:55:47.384Z,2.17
2023-04-12T07:58:15.133Z,2.80
2023-04-12T08:00:41.972Z,2.90
2023-04-12T08:03:08.848Z,3.10
2023-04-12T08:05:35.972Z,3.00
2023-04-12T08:08:03.568Z,3.93
2023-04-12T08:10:31.413Z,3.83
2023-04-12T08:12:58.557Z,3.03
2023-04-12T08:15:25.271Z,2.50
2023-04-12T08:17:52.005Z,2.47
2023-04-12T08:20:18.702Z,1.83
2023-04-12T08:22:46.746Z,2.40
2023-04-12T08:25:13.460Z,2.20
2023-04-12T08:27:42.615Z,3.13
2023-04-12T08:30:10.590Z,2.60
2023-04-12T08:32:37.670Z,3.47
2023-04-12T08:35:07.993Z,2.73
2023-04-12T08:37:34.661Z,2.80
2023-04-12T08:40:05.050Z,2.87
2023-04-12T08:42:32.372Z,2.63
2023-04-12T08:44:59.030Z,2.30
2023-04-12T08:47:25.993Z,2.30
2023-04-12T08:49:52.721Z,2.73
2023-04-12T08:52:19.467Z,1.93
2023-04-12T08:54:46.441Z,2.70
2023-04-12T08:57:13.700Z,2.70
2023-04-12T08:59:42.333Z,3.87
2023-04-12T09:02:09.845Z,1.80
2023-04-12T09:04:50.676Z,2.27
2023-04-12T09:07:17.813Z,3.27
2023-04-12T09:09:46.265Z,2.73
2023-04-12T09:12:13.862Z,3.53
2023-04-12T09:14:43.963Z,1.63
2023-04-12T09:17:23.788Z,4.00
2023-04-12T09:19:50.839Z,1.50
2023-04-12T09:22:17.601Z,4.07
2023-04-12T09:24:50.063Z,3.83
2023-04-12T09:27:20.815Z,7.10
2023-04-12T09:29:51.524Z,3.63
2023-04-12T09:32:27.544Z,3.60
2023-04-12T09:34:58.718Z,2.50
2023-04-12T09:37:26.202Z,3.23
2023-04-12T09:40:23.811Z,3.90
2023-04-12T09:42:56.237Z,3.57
2023-04-12T09:45:25.568Z,4.77
2023-04-12T09:47:53.656Z,4.93
2023-04-12T09:50:22.925Z,3.10
2023-04-12T09:52:52.876Z,2.17
2023-04-12T09:55:22.372Z,2.77
2023-04-12T09:57:51.829Z,2.93
2023-04-12T10:00:20.268Z,3.47
2023-04-12T10:02:52.469Z,3.30
2023-04-12T10:05:22.260Z,3.77
2023-04-12T10:07:50.236Z,4.93
2023-04-12T10:10:18.645Z,3.47
2023-04-12T10:12:47.493Z,2.80
2023-04-12T10:15:18.421Z,3.90
2023-04-12T10:17:47.401Z,2.03
2023-04-12T10:20:15.944Z,3.20
2023-04-12T10:22:47.526Z,3.40
2023-04-12T10:25:19.818Z,3.53
2023-04-12T10:27:47.712Z,3.00
2023-04-12T10:30:25.077Z,4.00
2023-04-12T10:33:06.624Z,3.53
2023-04-12T10:35:50.037Z,2.00
2023-04-12T10:38:17.641Z,4.20
2023-04-12T10:41:09.255Z,2.93
2023-04-12T10:43:36.008Z,2.40
2023-04-12T10:46:06.786Z,2.10
2023-04-12T10:48:37.308Z,3.70
2023-04-12T10:51:29.203Z,2.77
2023-04-12T10:54:08.196Z,2.57
2023-04-12T10:56:38.266Z,3.43
2023-04-12T10:59:06.747Z,3.83
2023-04-12T11:01:36.749Z,2.43
2023-04-12T11:04:06.359Z,4.90
2023-04-12T11:06:52.391Z,2.87
2023-04-12T11:09:30.227Z,5.17
2023-04-12T11:12:06.532Z,4.83
2023-04-12T11:14:58.266Z,4.40
2023-04-12T11:17:25.929Z,2.40
2023-04-12T11:20:02.339Z,3.93
2023-04-12T11:22:32.187Z,3.13
2023-04-12T11:25:00.691Z,2.83
2023-04-12T11:27:28.793Z,2.30
2023-04-12T11:29:57.846Z,2.93
2023-04-12T11:32:27.071Z,3.63
2023-04-12T11:34:56.196Z,3.43
2023-04-12T11:37:23.777Z,2.93
2023-04-12T11:39:53.500Z,3.03
2023-04-12T11:42:23.720Z,3.60
2023-04-12T11:44:58.574Z,5.20
2023-04-12T11:47:28.271Z,5.50
2023-04-12T11:49:59.187Z,3.73
2023-04-12T11:52:33.354Z,5.30
2023-04-12T11:55:06.643Z,8.10
2023-04-12T11:57:34.172Z,4.70
2023-04-12T12:00:01.694Z,5.43
2023-04-12T12:02:33.006Z,6.17
2023-04-12T12:05:03.821Z,4.93
2023-04-12T12:07:31.611Z,6.07
2023-04-12T12:09:58.679Z,3.87
2023-04-12T12:12:25.683Z,3.43
2023-04-12T12:14:52.329Z,7.60
2023-04-12T12:17:19.452Z,3.30
2023-04-12T12:19:46.633Z,5.20
2023-04-12T12:22:14.412Z,3.10
2023-04-12T12:24:57.816Z,5.13
2023-04-12T12:27:48.403Z,3.00
2023-04-12T12:30:20.774Z,4.03
2023-04-12T12:32:50.578Z,2.63
2023-04-12T12:35:19.258Z,2.83
2023-04-12T12:37:51.023Z,2.73
2023-04-12T12:40:18.615Z,3.67
2023-04-12T12:42:56.155Z,2.70
2023-04-12T12:45:25.061Z,2.93
2023-04-12T12:47:54.159Z,4.17
2023-04-12T12:50:25.021Z,3.60
2023-04-12T12:52:52.761Z,5.53
2023-04-12T12:55:21.219Z,5.03
2023-04-12T12:58:02.131Z,3.43
2023-04-12T13:00:32.539Z,3.30
2023-04-12T13:02:59.495Z,4.37
2023-04-12T13:05:26.585Z,7.03
2023-04-12T13:07:53.272Z,2.67
2023-04-12T13:10:20.364Z,3.70
2023-04-12T13:12:47.194Z,3.70
2023-04-12T13:15:22.210Z,6.23
2023-04-12T13:17:52.778Z,6.87
2023-04-12T13:20:19.726Z,10.83
2023-04-12T13:22:46.389Z,4.97
2023-04-12T13:25:13.157Z,5.83
2023-04-12T13:27:39.811Z,5.50
2023-04-12T13:30:07.158Z,7.63
2023-04-12T13:32:33.936Z,7.03
2023-04-12T13:35:00.651Z,8.63
2023-04-12T13:37:27.464Z,5.00
2023-04-12T13:39:54.153Z,4.93
2023-04-12T13:42:22.422Z,6.93
2023-04-12T13:44:49.325Z,4.50
2023-04-12T13:47:17.762Z,5.80
2023-04-12T13:49:44.590Z,5.67
2023-04-12T13:52:11.510Z,8.07
2023-04-12T13:54:38.293Z,6.10
2023-04-12T13:57:05.848Z,8.33
2023-04-12T13:59:32.741Z,7.10
2023-04-12T14:02:01.109Z,9.20
2023-04-12T14:04:28.764Z,6.30
2023-04-12T14:06:56.072Z,6.03
2023-04-12T14:09:27.409Z,6.00
2023-04-12T14:11:56.217Z,4.67
2023-04-12T14:14:27.176Z,5.30
2023-04-12T14:16:58.485Z,8.03
2023-04-12T14:19:25.474Z,7.87
2023-04-12T14:21:52.476Z,6.20
2023-04-12T14:24:20.508Z,8.27
2023-04-12T14:26:48.571Z,5.87
2023-04-12T14:29:15.496Z,9.47
2023-04-12T14:31:42.281Z,5.97
2023-04-12T14:34:10.640Z,7.97
2023-04-12T14:36:37.372Z,8.10
2023-04-12T14:39:06.398Z,7.00
2023-04-12T14:41:34.490Z,5.57
2023-04-12T14:44:01.394Z,9.03
2023-04-12T14:46:28.482Z,7.87
2023-04-12T14:48:57.377Z,7.80
2023-04-12T14:51:24.357Z,5.43
2023-04-12T14:53:51.366Z,5.90
2023-04-12T14:56:24.656Z,8.47
2023-04-12T14:58:56.862Z,7.00
2023-04-12T15:01:25.164Z,3.63
2023-04-12T15:03:53.036Z,7.40
2023-04-12T15:06:22.485Z,4.30
2023-04-12T15:08:54.965Z,7.00
2023-04-12T15:11:27.281Z,6.97
2023-04-12T15:13:55.102Z,6.67
2023-04-12T15:16:22.746Z,7.27
2023-04-12T15:18:51.062Z,4.43
2023-04-12T15:21:18.052Z,5.93
2023-04-12T15:23:44.979Z,3.80
2023-04-12T15:26:13.990Z,5.20
2023-04-12T15:28:40.853Z,5.03
2023-04-12T15:31:08.865Z,5.27
2023-04-12T15:33:37.057Z,2.90
2023-04-12T15:36:04.827Z,5.13
2023-04-12T15:38:31.959Z,6.53
2023-04-12T15:41:02.031Z,4.27
2023-04-12T15:43:29.168Z,6.13
2023-04-12T15:45:56.256Z,5.10
2023-04-12T15:48:24.776Z,8.43
2023-04-12T15:50:52.717Z,8.53
2023-04-12T15:53:21.236Z,5.77
2023-04-12T15:55:48.803Z,5.40
2023-04-12T15:58:15.931Z,3.47
2023-04-12T16:00:42.800Z,6.13
2023-04-12T16:03:09.885Z,5.77
2023-04-12T16:05:36.984Z,5.53
2023-04-12T16:08:04.232Z,5.63
2023-04-12T16:10:31.073Z,5.87
2023-04-12T16:12:57.906Z,6.23
2023-04-12T16:15:24.772Z,6.97
2023-04-12T16:17:55.985Z,5.00
2023-04-12T16:20:23.922Z,3.10
2023-04-12T16:22:55.679Z,4.13
2023-04-12T16:25:24.307Z,7.17
2023-04-12T16:27:51.960Z,6.10
2023-04-12T16:30:18.796Z,5.77
2023-04-12T16:32:50.549Z,5.53
2023-04-12T16:35:17.478Z,2.33
2023-04-12T16:37:45.359Z,2.03
2023-04-12T16:40:12.982Z,2.07
2023-04-12T16:42:43.747Z,3.10
2023-04-12T16:45:13.923Z,1.90
2023-04-12T16:47:40.940Z,3.00
2023-04-12T16:50:09.162Z,2.33
2023-04-12T16:52:36.734Z,2.83
2023-04-12T16:55:04.071Z,2.37
2023-04-12T16:57:31.165Z,1.50
2023-04-12T16:59:57.995Z,2.60
2023-04-12T17:02:25.990Z,1.93
2023-04-12T17:04:53.031Z,2.23
2023-04-12T17:07:19.863Z,2.27
2023-04-12T17:09:46.680Z,3.37
2023-04-12T17:12:13.450Z,3.43
2023-04-12T17:14:40.155Z,2.17
2023-04-12T17:17:07.028Z,2.77
2023-04-12T17:19:33.969Z,2.77
2023-04-12T17:22:00.843Z,1.73
2023-04-12T17:24:28.963Z,2.13
2023-04-12T17:26:56.220Z,3.23
2023-04-12T17:29:22.979Z,2.90
2023-04-12T17:31:53.214Z,3.33
2023-04-12T17:34:22.484Z,5.33
2023-04-12T17:36:49.388Z,3.70
2023-04-12T17:39:16.607Z,3.77
2023-04-12T17:41:43.470Z,2.10
2023-04-12T17:44:10.248Z,2.83
2023-04-12T17:46:37.299Z,1.37
2023-04-12T17:49:05.656Z,1.80
2023-04-12T17:51:33.091Z,2.90
2023-04-12T17:54:00.705Z,2.07
2023-04-12T17:56:27.882Z,1.60
2023-04-12T17:58:55.244Z,2.13
2023-04-12T18:01:22.572Z,5.27
2023-04-12T18:03:49.729Z,3.07
2023-04-12T18:06:18.696Z,3.23
2023-04-12T18:08:46.878Z,4.30
2023-04-12T18:11:13.701Z,8.07
2023-04-12T18:13:40.410Z,6.10
2023-04-12T18:16:07.322Z,4.70
2023-04-12T18:18:34.237Z,7.90
2023-04-12T18:21:04.500Z,4.10
2023-04-12T18:23:31.423Z,4.43
2023-04-12T18:25:58.230Z,5.27
2023-04-12T18:28:25.080Z,5.60
2023-04-12T18:30:51.934Z,3.97
2023-04-12T18:33:18.702Z,4.33
2023-04-12T18:35:45.589Z,2.27
2023-04-12T18:38:12.327Z,6.17
2023-04-12T18:40:39.096Z,3.53
2023-04-12T18:43:06.177Z,5.97
2023-04-12T18:45:32.961Z,3.97
2023-04-12T18:48:00.181Z,4.87
2023-04-12T18:50:27.250Z,4.10
2023-04-12T18:52:53.966Z,4.67
2023-04-12T18:55:20.994Z,3.87
2023-04-12T18:57:49.095Z,5.50
2023-04-12T19:00:16.574Z,3.50
2023-04-12T19:02:43.442Z,4.67
2023-04-12T19:05:14.626Z,3.60
2023-04-12T19:07:41.507Z,4.27
2023-04-12T19:10:09.176Z,4.13
2023-04-12T19:12:36.010Z,4.10
2023-04-12T19:15:02.844Z,4.90
2023-04-12T19:17:30.348Z,6.47
2023-04-12T19:19:57.551Z,5.20
2023-04-12T19:22:27.810Z,4.50
2023-04-12T19:24:54.925Z,4.63
2023-04-12T19:27:22.933Z,3.93
2023-04-12T19:29:51.720Z,3.27
2023-04-12T19:32:19.022Z,2.80
2023-04-12T19:34:47.040Z,3.90
2023-04-12T19:37:14.143Z,3.83
2023-04-12T19:39:41.187Z,7.23
2023-04-12T19:42:08.035Z,4.30
2023-04-12T19:44:34.828Z,7.33
2023-04-12T19:47:01.620Z,4.57
2023-04-12T19:49:28.780Z,3.77
2023-04-12T19:51:56.253Z,4.13
2023-04-12T19:54:23.912Z,3.57
2023-04-12T19:56:52.547Z,3.80
2023-04-12T19:59:19.930Z,4.00
2023-04-12T20:01:49.519Z,3.13
2023-04-12T20:04:20.776Z,3.23
2023-04-12T20:06:49.292Z,3.03
2023-04-12T20:09:16.106Z,3.43
2023-04-12T20:11:42.888Z,2.70
2023-04-12T20:14:09.691Z,3.50
2023-04-12T20:16:42.831Z,3.30
2023-04-12T20:19:09.960Z,3.57
2023-04-12T20:21:36.711Z,4.80
2023-04-12T20:24:04.049Z,4.23
2023-04-12T20:26:33.966Z,4.33
2023-04-12T20:29:01.356Z,3.23
2023-04-12T20:31:28.556Z,3.37
2023-04-12T20:33:56.947Z,5.33
2023-04-12T20:36:26.122Z,4.73
2023-04-12T20:38:53.817Z,3.23
2023-04-12T20:41:20.948Z,4.17
2023-04-12T20:43:48.313Z,3.33
2023-04-12T20:46:17.440Z,3.27
2023-04-12T20:48:46.497Z,5.17
2023-04-12T20:51:14.395Z,5.27
2023-04-12T20:53:43.567Z,3.37
2023-04-12T20:56:10.306Z,4.60
2023-04-12T20:58:37.936Z,4.90
2023-04-12T21:01:07.224Z,4.83
2023-04-12T21:03:38.368Z,7.20
2023-04-12T21:06:06.770Z,4.03
2023-04-12T21:08:36.206Z,4.10
2023-04-12T21:11:03.632Z,4.83
2023-04-12T21:13:31.019Z,5.13
2023-04-12T21:15:58.981Z,4.93
2023-04-12T21:18:25.770Z,4.67
2023-04-12T21:20:53.171Z,5.37
2023-04-12T21:23:19.900Z,4.53
2023-04-12T21:25:48.371Z,5.00
2023-04-12T21:28:15.442Z,6.43
2023-04-12T21:30:44.485Z,4.57
2023-04-12T21:33:16.382Z,2.87
2023-04-12T21:35:43.113Z,2.63
2023-04-12T21:38:09.796Z,2.10
2023-04-12T21:40:36.703Z,1.40
2023-04-12T21:43:03.356Z,3.93
2023-04-12T21:45:30.206Z,2.47
2023-04-12T21:47:56.978Z,2.00
2023-04-12T21:50:23.718Z,2.90
2023-04-12T21:52:50.452Z,2.33
2023-04-12T21:55:18.614Z,1.90
2023-04-12T21:57:45.420Z,2.17
2023-04-12T22:00:12.639Z,3.27
2023-04-12T22:02:40.380Z,2.23
2023-04-12T22:05:07.659Z,2.27
2023-04-12T22:07:34.331Z,1.40
2023-04-12T22:10:02.399Z,1.80
2023-04-12T22:12:29.082Z,1.80
2023-04-12T22:14:57.693Z,2.93
2023-04-12T22:17:24.600Z,3.00
2023-04-12T22:19:54.965Z,2.17
2023-04-12T22:22:21.623Z,1.53
2023-04-12T22:24:48.377Z,1.60
2023-04-12T22:27:16.296Z,2.67
2023-04-12T22:29:43.464Z,1.83
2023-04-12T22:32:10.144Z,1.97
2023-04-12T22:34:37.129Z,1.50
2023-04-12T22:37:04.381Z,2.53
2023-04-12T22:39:33.928Z,2.77
2023-04-12T22:42:00.619Z,1.60
2023-04-12T22:44:29.009Z,3.53
2023-04-12T22:46:56.675Z,1.80
2023-04-12T22:49:27.193Z,1.87
2023-04-12T22:51:57.779Z,2.83
2023-04-12T22:54:25.654Z,3.93
2023-04-12T22:56:52.674Z,2.17
2023-04-12T22:59:26.236Z,1.53
2023-04-12T23:01:53.832Z,2.67
2023-04-12T23:04:20.575Z,1.63
2023-04-12T23:06:47.632Z,3.03
2023-04-12T23:09:15.378Z,1.60
2023-04-12T23:11:42.815Z,3.03
2023-04-12T23:14:10.131Z,3.23
2023-04-12T23:16:42.375Z,3.23
2023-04-12T23:19:09.320Z,3.33
2023-04-12T23:21:36.221Z,2.17
2023-04-12T23:24:03.136Z,2.00
2023-04-12T23:26:29.783Z,2.33
2023-04-12T23:28:57.201Z,3.33
2023-04-12T23:31:23.959Z,3.70
2023-04-12T23:33:50.646Z,2.97
2023-04-12T23:36:17.372Z,3.47
2023-04-12T23:38:44.331Z,1.40
2023-04-12T23:41:12.524Z,1.77
2023-04-12T23:43:39.469Z,1.67
2023-04-12T23:46:06.728Z,4.07
2023-04-12T23:48:33.466Z,1.30
2023-04-12T23:51:00.886Z,1.60
2023-04-12T23:53:27.553Z,3.40
2023-04-12T23:55:54.690Z,1.80
2023-04-12T23:58:21.960Z,2.20
